DLH1456 EDDF-LATI
Flight info
| Callsign | DLH1456 |
|---|---|
| Flight time | 1h 45m |
| Altitude | 37000 |
| Route | CINDY8S/18 CINDY Z74 LAMPU DCT NOMBO Y161 MAH DCT VAVOR DCT RADIZ DCT DEGUM DCT ALIVO DCT KULEN DCT SIRMI DCT NERRA DCT BALHA DCT TIBRI DCT PETAK |
| Aircraft | A321/M-SDE2E3FGIJ1LORWXYZ/HB1 |
Departure
| Time | 2026-05-05 19:11 |
|---|---|
| Airport | Frankfurt Main Airport (EDDF) |
Arrival
| Time | 2026-05-05 20:57 |
|---|---|
| Airport | Tirana International Airport Mother Teresa (LATI) |
| Time | Latitude | Longitude | Altitude | Speed | Heading |
|---|---|---|---|---|---|
| 2026-05-05 18:12 | 50.03944 | 8.55118 | 349 ft | 0 kts | 160° |
| 2026-05-05 19:03 | 50.03912 | 8.55137 | 348 ft | 14 kts | 160° |
| 2026-05-05 19:03 | 50.03847 | 8.55105 | 347 ft | 12 kts | 249° |
| 2026-05-05 19:04 | 50.03801 | 8.54909 | 344 ft | 24 kts | 250° |
| 2026-05-05 19:04 | 50.03742 | 8.54667 | 339 ft | 24 kts | 250° |
| 2026-05-05 19:04 | 50.03685 | 8.54428 | 338 ft | 22 kts | 250° |
| 2026-05-05 19:04 | 50.03632 | 8.54204 | 339 ft | 20 kts | 249° |
| 2026-05-05 19:05 | 50.03589 | 8.54028 | 341 ft | 16 kts | 250° |
| 2026-05-05 19:05 | 50.03551 | 8.53865 | 342 ft | 15 kts | 250° |
| 2026-05-05 19:05 | 50.03514 | 8.53712 | 344 ft | 14 kts | 250° |
| 2026-05-05 19:05 | 50.03479 | 8.53568 | 343 ft | 14 kts | 250° |
| 2026-05-05 19:06 | 50.03442 | 8.53412 | 340 ft | 16 kts | 250° |
| 2026-05-05 19:06 | 50.03391 | 8.53196 | 337 ft | 23 kts | 250° |
| 2026-05-05 19:06 | 50.03336 | 8.52966 | 338 ft | 21 kts | 250° |
| 2026-05-05 19:06 | 50.03299 | 8.52812 | 337 ft | 13 kts | 250° |
| 2026-05-05 19:07 | 50.03286 | 8.52763 | 337 ft | 2 kts | 250° |
| 2026-05-05 19:07 | 50.03285 | 8.52757 | 337 ft | 0 kts | 250° |
| 2026-05-05 19:09 | 50.03258 | 8.52668 | 336 ft | 20 kts | 232° |
| 2026-05-05 19:09 | 50.03162 | 8.52595 | 334 ft | 10 kts | 182° |
| 2026-05-05 19:09 | 50.03153 | 8.52595 | 334 ft | 0 kts | 180° |
| 2026-05-05 19:10 | 50.03152 | 8.52595 | 334 ft | 0 kts | 180° |
| 2026-05-05 19:10 | 50.03149 | 8.52595 | 334 ft | 1 kts | 180° |
| 2026-05-05 19:10 | 50.02975 | 8.52596 | 331 ft | 60 kts | 180° |
| 2026-05-05 19:11 | 50.02307 | 8.52603 | 328 ft | 127 kts | 179° |
| 2026-05-05 19:11 | 50.01274 | 8.52601 | 553 ft | 157 kts | 182° |
| 2026-05-05 19:11 | 50.00211 | 8.52543 | 1175 ft | 154 kts | 184° |
| 2026-05-05 19:11 | 49.99128 | 8.52473 | 1700 ft | 159 kts | 184° |
| 2026-05-05 19:12 | 49.98016 | 8.52471 | 2178 ft | 162 kts | 181° |
| 2026-05-05 19:12 | 49.96869 | 8.52738 | 2404 ft | 176 kts | 156° |
| 2026-05-05 19:12 | 49.95982 | 8.54092 | 2636 ft | 191 kts | 121° |
| 2026-05-05 19:12 | 49.95353 | 8.56000 | 2911 ft | 204 kts | 119° |
| 2026-05-05 19:13 | 49.94677 | 8.58012 | 3189 ft | 218 kts | 119° |
| 2026-05-05 19:13 | 49.94114 | 8.60283 | 3464 ft | 234 kts | 104° |
| 2026-05-05 19:13 | 49.93904 | 8.62871 | 3699 ft | 255 kts | 95° |
| 2026-05-05 19:13 | 49.93814 | 8.65683 | 4188 ft | 265 kts | 93° |
| 2026-05-05 19:14 | 49.93613 | 8.68517 | 4835 ft | 267 kts | 109° |
| 2026-05-05 19:14 | 49.92640 | 8.70907 | 5500 ft | 264 kts | 141° |
| 2026-05-05 19:14 | 49.91156 | 8.72606 | 6027 ft | 273 kts | 149° |
| 2026-05-05 19:14 | 49.89558 | 8.74305 | 6715 ft | 280 kts | 145° |
| 2026-05-05 19:15 | 49.88180 | 8.76427 | 7474 ft | 286 kts | 130° |
| 2026-05-05 19:15 | 49.87098 | 8.79039 | 8265 ft | 290 kts | 122° |
| 2026-05-05 19:15 | 49.86112 | 8.81785 | 8992 ft | 294 kts | 121° |
| 2026-05-05 19:15 | 49.85136 | 8.84545 | 9699 ft | 297 kts | 121° |
| 2026-05-05 19:16 | 49.84136 | 8.87352 | 10308 ft | 304 kts | 122° |
| 2026-05-05 19:16 | 49.83086 | 8.90268 | 10636 ft | 320 kts | 122° |
| 2026-05-05 19:16 | 49.81970 | 8.93350 | 11073 ft | 331 kts | 122° |
| 2026-05-05 19:16 | 49.80840 | 8.96464 | 11740 ft | 335 kts | 122° |
| 2026-05-05 19:17 | 49.79698 | 8.99602 | 12422 ft | 337 kts | 121° |
| 2026-05-05 19:17 | 49.78548 | 9.02758 | 13061 ft | 340 kts | 122° |
| 2026-05-05 19:17 | 49.77396 | 9.05927 | 13691 ft | 343 kts | 121° |
| 2026-05-05 19:17 | 49.76369 | 9.09290 | 14304 ft | 348 kts | 114° |
| 2026-05-05 19:18 | 49.75606 | 9.12829 | 14941 ft | 352 kts | 107° |
| 2026-05-05 19:18 | 49.74873 | 9.16401 | 15556 ft | 351 kts | 118° |
| 2026-05-05 19:18 | 49.73389 | 9.19346 | 16179 ft | 346 kts | 140° |
| 2026-05-05 19:18 | 49.71545 | 9.21678 | 16789 ft | 346 kts | 144° |
| 2026-05-05 19:19 | 49.69656 | 9.23955 | 17333 ft | 349 kts | 143° |
| 2026-05-05 19:19 | 49.67764 | 9.26312 | 17895 ft | 351 kts | 142° |
| 2026-05-05 19:19 | 49.65885 | 9.28734 | 18405 ft | 353 kts | 141° |
| 2026-05-05 19:19 | 49.64010 | 9.31212 | 18943 ft | 356 kts | 140° |
| 2026-05-05 19:20 | 49.62163 | 9.33691 | 19497 ft | 357 kts | 140° |
| 2026-05-05 19:20 | 49.60298 | 9.36213 | 20033 ft | 358 kts | 140° |
| 2026-05-05 19:20 | 49.58420 | 9.38760 | 20559 ft | 360 kts | 140° |
| 2026-05-05 19:20 | 49.56537 | 9.41321 | 21051 ft | 361 kts | 139° |
| 2026-05-05 19:21 | 49.54664 | 9.43867 | 21547 ft | 363 kts | 140° |
| 2026-05-05 19:21 | 49.52786 | 9.46422 | 22037 ft | 365 kts | 139° |
| 2026-05-05 19:21 | 49.50876 | 9.49021 | 22514 ft | 366 kts | 139° |
| 2026-05-05 19:21 | 49.48964 | 9.51617 | 22980 ft | 368 kts | 139° |
| 2026-05-05 19:22 | 49.47065 | 9.54198 | 23429 ft | 370 kts | 139° |
| 2026-05-05 19:22 | 49.45128 | 9.56830 | 23895 ft | 371 kts | 139° |
| 2026-05-05 19:22 | 49.43201 | 9.59441 | 24335 ft | 373 kts | 140° |
| 2026-05-05 19:22 | 49.41244 | 9.62089 | 24775 ft | 375 kts | 139° |
| 2026-05-05 19:23 | 49.39297 | 9.64726 | 25209 ft | 376 kts | 139° |
| 2026-05-05 19:23 | 49.37339 | 9.67371 | 25639 ft | 378 kts | 140° |
| 2026-05-05 19:23 | 49.35362 | 9.70040 | 26051 ft | 379 kts | 140° |
| 2026-05-05 19:23 | 49.33374 | 9.72721 | 26448 ft | 381 kts | 140° |
| 2026-05-05 19:24 | 49.31397 | 9.75381 | 26822 ft | 382 kts | 140° |
| 2026-05-05 19:24 | 49.29407 | 9.78054 | 27191 ft | 384 kts | 140° |
| 2026-05-05 19:24 | 49.27399 | 9.80751 | 27562 ft | 385 kts | 140° |
| 2026-05-05 19:24 | 49.25379 | 9.83461 | 27917 ft | 387 kts | 140° |
| 2026-05-05 19:25 | 49.23368 | 9.86156 | 28252 ft | 389 kts | 140° |
| 2026-05-05 19:25 | 49.21338 | 9.88873 | 28572 ft | 390 kts | 140° |
| 2026-05-05 19:25 | 49.19295 | 9.91604 | 28905 ft | 392 kts | 140° |
| 2026-05-05 19:25 | 49.17225 | 9.94368 | 29230 ft | 393 kts | 140° |
| 2026-05-05 19:26 | 49.15172 | 9.97108 | 29543 ft | 394 kts | 140° |
| 2026-05-05 19:26 | 49.13110 | 9.99856 | 29845 ft | 396 kts | 140° |
| 2026-05-05 19:26 | 49.11051 | 10.02593 | 30125 ft | 397 kts | 140° |
| 2026-05-05 19:26 | 49.08950 | 10.05383 | 30385 ft | 399 kts | 140° |
| 2026-05-05 19:27 | 49.06860 | 10.08166 | 30660 ft | 400 kts | 140° |
| 2026-05-05 19:27 | 49.04834 | 10.11007 | 30911 ft | 402 kts | 138° |
| 2026-05-05 19:27 | 49.02784 | 10.13907 | 31152 ft | 403 kts | 138° |
| 2026-05-05 19:27 | 49.00723 | 10.16812 | 31375 ft | 405 kts | 138° |
| 2026-05-05 19:28 | 48.98674 | 10.19699 | 31601 ft | 407 kts | 139° |
| 2026-05-05 19:28 | 48.96588 | 10.22643 | 31805 ft | 409 kts | 139° |
| 2026-05-05 19:28 | 48.94508 | 10.25580 | 31991 ft | 411 kts | 139° |
| 2026-05-05 19:28 | 48.92406 | 10.28547 | 32273 ft | 411 kts | 139° |
| 2026-05-05 19:29 | 48.90345 | 10.31457 | 32586 ft | 410 kts | 139° |
| 2026-05-05 19:29 | 48.88260 | 10.34395 | 32896 ft | 409 kts | 139° |
| 2026-05-05 19:29 | 48.86160 | 10.37352 | 33192 ft | 409 kts | 139° |
| 2026-05-05 19:29 | 48.84089 | 10.40264 | 33492 ft | 408 kts | 139° |
| 2026-05-05 19:30 | 48.82083 | 10.43273 | 33762 ft | 409 kts | 136° |
| 2026-05-05 19:30 | 48.80130 | 10.46404 | 34057 ft | 408 kts | 135° |
| 2026-05-05 19:30 | 48.78184 | 10.49517 | 34335 ft | 407 kts | 136° |
| 2026-05-05 19:30 | 48.76257 | 10.52597 | 34565 ft | 407 kts | 136° |
| 2026-05-05 19:31 | 48.74305 | 10.55714 | 34776 ft | 407 kts | 136° |
| 2026-05-05 19:31 | 48.72356 | 10.58823 | 34963 ft | 408 kts | 136° |
| 2026-05-05 19:31 | 48.70416 | 10.61916 | 35131 ft | 409 kts | 136° |
| 2026-05-05 19:31 | 48.68460 | 10.65032 | 35254 ft | 411 kts | 137° |
| 2026-05-05 19:32 | 48.66486 | 10.68169 | 35402 ft | 412 kts | 137° |
| 2026-05-05 19:32 | 48.64510 | 10.71307 | 35576 ft | 412 kts | 137° |
| 2026-05-05 19:32 | 48.62532 | 10.74443 | 35711 ft | 413 kts | 137° |
| 2026-05-05 19:32 | 48.60576 | 10.77549 | 35814 ft | 415 kts | 137° |
| 2026-05-05 19:33 | 48.58573 | 10.80719 | 35926 ft | 417 kts | 137° |
| 2026-05-05 19:33 | 48.56592 | 10.83883 | 36031 ft | 418 kts | 137° |
| 2026-05-05 19:33 | 48.54607 | 10.87067 | 36163 ft | 419 kts | 137° |
| 2026-05-05 19:33 | 48.52689 | 10.90363 | 36296 ft | 422 kts | 134° |
| 2026-05-05 19:34 | 48.50845 | 10.93808 | 36426 ft | 424 kts | 133° |
| 2026-05-05 19:34 | 48.48997 | 10.97307 | 36576 ft | 424 kts | 133° |
| 2026-05-05 19:34 | 48.47178 | 11.00747 | 36736 ft | 425 kts | 133° |
| 2026-05-05 19:35 | 48.43476 | 11.07684 | 36833 ft | 429 kts | 133° |
| 2026-05-05 19:35 | 48.39716 | 11.14679 | 36840 ft | 431 kts | 133° |
| 2026-05-05 19:36 | 48.35955 | 11.21649 | 36837 ft | 432 kts | 133° |
| 2026-05-05 19:36 | 48.32143 | 11.28685 | 36841 ft | 435 kts | 133° |
| 2026-05-05 19:37 | 48.28336 | 11.35695 | 36841 ft | 436 kts | 133° |
| 2026-05-05 19:37 | 48.24493 | 11.42749 | 36833 ft | 438 kts | 133° |
| 2026-05-05 19:38 | 48.20644 | 11.49798 | 36838 ft | 439 kts | 133° |
| 2026-05-05 19:38 | 48.16798 | 11.56823 | 36835 ft | 440 kts | 133° |
| 2026-05-05 19:39 | 48.12918 | 11.63890 | 36831 ft | 441 kts | 133° |
| 2026-05-05 19:39 | 48.11447 | 11.66566 | 36825 ft | 442 kts | 134° |
| 2026-05-05 19:40 | 48.09064 | 11.70890 | 36840 ft | 443 kts | 134° |
| 2026-05-05 19:40 | 48.05151 | 11.77983 | 36833 ft | 444 kts | 134° |
| 2026-05-05 19:41 | 48.01225 | 11.85082 | 36840 ft | 444 kts | 134° |
| 2026-05-05 19:41 | 47.97288 | 11.92175 | 36835 ft | 445 kts | 134° |
| 2026-05-05 19:42 | 47.93364 | 11.99230 | 36836 ft | 446 kts | 134° |
| 2026-05-05 19:42 | 47.89411 | 12.06319 | 36853 ft | 446 kts | 134° |
| 2026-05-05 19:43 | 47.85433 | 12.13431 | 36856 ft | 446 kts | 134° |
| 2026-05-05 19:43 | 47.81480 | 12.20485 | 36876 ft | 447 kts | 134° |
| 2026-05-05 19:44 | 47.77514 | 12.27537 | 36879 ft | 447 kts | 134° |
| 2026-05-05 19:44 | 47.73542 | 12.34587 | 36889 ft | 448 kts | 133° |
| 2026-05-05 19:45 | 47.69526 | 12.41690 | 36883 ft | 448 kts | 133° |
| 2026-05-05 19:45 | 47.65509 | 12.48639 | 36891 ft | 447 kts | 136° |
| 2026-05-05 19:46 | 47.61037 | 12.55023 | 36884 ft | 444 kts | 143° |
| 2026-05-05 19:46 | 47.56159 | 12.60509 | 36895 ft | 442 kts | 149° |
| 2026-05-05 19:47 | 47.51102 | 12.65668 | 36899 ft | 442 kts | 149° |
| 2026-05-05 19:47 | 47.46079 | 12.70788 | 36903 ft | 442 kts | 149° |
| 2026-05-05 19:48 | 47.41016 | 12.75942 | 36907 ft | 443 kts | 149° |
| 2026-05-05 19:48 | 47.35955 | 12.81083 | 36927 ft | 443 kts | 149° |
| 2026-05-05 19:49 | 47.30895 | 12.86212 | 36940 ft | 444 kts | 149° |
| 2026-05-05 19:49 | 47.25817 | 12.91348 | 36941 ft | 444 kts | 149° |
| 2026-05-05 19:50 | 47.20737 | 12.96473 | 36937 ft | 444 kts | 149° |
| 2026-05-05 19:50 | 47.15637 | 13.01607 | 36923 ft | 444 kts | 149° |
| 2026-05-05 19:51 | 47.10545 | 13.06719 | 36925 ft | 445 kts | 149° |
| 2026-05-05 19:51 | 47.05443 | 13.11830 | 36941 ft | 445 kts | 149° |
| 2026-05-05 19:52 | 47.00349 | 13.16920 | 36963 ft | 446 kts | 149° |
| 2026-05-05 19:52 | 46.95223 | 13.22031 | 36950 ft | 446 kts | 149° |
| 2026-05-05 19:53 | 46.90129 | 13.27097 | 36937 ft | 447 kts | 149° |
| 2026-05-05 19:53 | 46.84962 | 13.32225 | 36946 ft | 447 kts | 149° |
| 2026-05-05 19:54 | 46.79820 | 13.37316 | 36955 ft | 447 kts | 149° |
| 2026-05-05 19:54 | 46.74706 | 13.42367 | 36963 ft | 447 kts | 149° |
| 2026-05-05 19:55 | 46.69561 | 13.47437 | 36957 ft | 448 kts | 149° |
| 2026-05-05 19:55 | 46.64408 | 13.52503 | 36959 ft | 448 kts | 149° |
| 2026-05-05 19:55 | 46.61815 | 13.55048 | 37108 ft | 447 kts | 149° |
| 2026-05-05 19:56 | 46.59271 | 13.57542 | 37018 ft | 446 kts | 149° |
| 2026-05-05 19:56 | 46.54117 | 13.62585 | 36966 ft | 446 kts | 149° |
| 2026-05-05 19:57 | 46.48988 | 13.67590 | 36960 ft | 446 kts | 149° |
| 2026-05-05 19:57 | 46.43963 | 13.72881 | 36963 ft | 448 kts | 145° |
| 2026-05-05 19:58 | 46.39045 | 13.78419 | 36963 ft | 448 kts | 145° |
| 2026-05-05 19:58 | 46.34159 | 13.83906 | 36955 ft | 448 kts | 145° |
| 2026-05-05 19:59 | 46.29230 | 13.89428 | 36954 ft | 448 kts | 145° |
| 2026-05-05 19:59 | 46.24313 | 13.94923 | 36957 ft | 448 kts | 145° |
| 2026-05-05 20:00 | 46.19392 | 14.00409 | 36954 ft | 448 kts | 145° |
| 2026-05-05 20:00 | 46.14485 | 14.05866 | 36954 ft | 448 kts | 145° |
| 2026-05-05 20:01 | 46.09563 | 14.11329 | 36957 ft | 448 kts | 145° |
| 2026-05-05 20:01 | 46.04629 | 14.16791 | 36961 ft | 448 kts | 146° |
| 2026-05-05 20:02 | 45.99688 | 14.22248 | 36960 ft | 449 kts | 145° |
| 2026-05-05 20:02 | 45.94764 | 14.27674 | 36957 ft | 449 kts | 146° |
| 2026-05-05 20:03 | 45.89802 | 14.33130 | 36960 ft | 450 kts | 146° |
| 2026-05-05 20:03 | 45.84843 | 14.38570 | 36958 ft | 451 kts | 146° |
| 2026-05-05 20:04 | 45.79865 | 14.44019 | 36958 ft | 451 kts | 146° |
| 2026-05-05 20:04 | 45.74868 | 14.49473 | 36959 ft | 452 kts | 146° |
| 2026-05-05 20:05 | 45.69888 | 14.54896 | 36954 ft | 452 kts | 146° |
| 2026-05-05 20:05 | 45.64886 | 14.60335 | 36962 ft | 454 kts | 146° |
| 2026-05-05 20:06 | 45.59861 | 14.65782 | 36964 ft | 454 kts | 147° |
| 2026-05-05 20:06 | 45.54859 | 14.71193 | 36970 ft | 455 kts | 147° |
| 2026-05-05 20:07 | 45.49842 | 14.76652 | 36972 ft | 455 kts | 146° |
| 2026-05-05 20:07 | 45.44833 | 14.82221 | 36977 ft | 455 kts | 146° |
| 2026-05-05 20:08 | 45.39859 | 14.87732 | 36984 ft | 455 kts | 146° |
| 2026-05-05 20:08 | 45.34880 | 14.93230 | 36984 ft | 456 kts | 146° |
| 2026-05-05 20:09 | 45.29878 | 14.98733 | 36985 ft | 456 kts | 146° |
| 2026-05-05 20:09 | 45.24863 | 15.04239 | 36988 ft | 457 kts | 146° |
| 2026-05-05 20:10 | 45.19824 | 15.09761 | 36985 ft | 458 kts | 146° |
| 2026-05-05 20:10 | 45.14853 | 15.15335 | 36982 ft | 458 kts | 144° |
| 2026-05-05 20:11 | 45.09966 | 15.21092 | 36987 ft | 459 kts | 144° |
| 2026-05-05 20:11 | 45.05057 | 15.26863 | 36984 ft | 459 kts | 144° |
| 2026-05-05 20:12 | 45.00172 | 15.32589 | 36986 ft | 460 kts | 144° |
| 2026-05-05 20:12 | 44.95242 | 15.38351 | 36989 ft | 460 kts | 144° |
| 2026-05-05 20:13 | 44.90346 | 15.44066 | 36988 ft | 461 kts | 144° |
| 2026-05-05 20:13 | 44.85396 | 15.49826 | 36996 ft | 460 kts | 144° |
| 2026-05-05 20:14 | 44.80473 | 15.55543 | 36995 ft | 462 kts | 143° |
| 2026-05-05 20:14 | 44.75517 | 15.61287 | 36999 ft | 462 kts | 144° |
| 2026-05-05 20:15 | 44.70583 | 15.66992 | 36991 ft | 462 kts | 144° |
| 2026-05-05 20:15 | 44.65576 | 15.72765 | 36998 ft | 463 kts | 144° |
| 2026-05-05 20:16 | 44.60630 | 15.78457 | 37000 ft | 462 kts | 144° |
| 2026-05-05 20:16 | 44.55638 | 15.84186 | 37005 ft | 464 kts | 144° |
| 2026-05-05 20:17 | 44.50653 | 15.89899 | 37018 ft | 465 kts | 144° |
| 2026-05-05 20:17 | 44.45665 | 15.95599 | 37015 ft | 465 kts | 144° |
| 2026-05-05 20:18 | 44.40647 | 16.01320 | 37015 ft | 465 kts | 144° |
| 2026-05-05 20:18 | 44.35644 | 16.07012 | 37029 ft | 467 kts | 144° |
| 2026-05-05 20:19 | 44.30622 | 16.12715 | 37031 ft | 466 kts | 144° |
| 2026-05-05 20:19 | 44.25610 | 16.18388 | 37036 ft | 467 kts | 144° |
| 2026-05-05 20:20 | 44.20568 | 16.24086 | 37048 ft | 468 kts | 144° |
| 2026-05-05 20:20 | 44.15490 | 16.29802 | 37045 ft | 467 kts | 145° |
| 2026-05-05 20:21 | 44.10297 | 16.35179 | 37049 ft | 467 kts | 147° |
| 2026-05-05 20:21 | 44.05074 | 16.40495 | 37051 ft | 467 kts | 147° |
| 2026-05-05 20:22 | 43.99858 | 16.45797 | 37057 ft | 467 kts | 147° |
| 2026-05-05 20:22 | 43.94615 | 16.51113 | 37062 ft | 467 kts | 147° |
| 2026-05-05 20:23 | 43.89399 | 16.56394 | 37061 ft | 467 kts | 147° |
| 2026-05-05 20:23 | 43.84147 | 16.61698 | 37061 ft | 467 kts | 147° |
| 2026-05-05 20:24 | 43.78902 | 16.66985 | 37063 ft | 466 kts | 147° |
| 2026-05-05 20:24 | 43.73659 | 16.72257 | 37064 ft | 466 kts | 147° |
| 2026-05-05 20:25 | 43.68435 | 16.77500 | 37062 ft | 466 kts | 147° |
| 2026-05-05 20:25 | 43.63200 | 16.82741 | 37064 ft | 466 kts | 147° |
| 2026-05-05 20:26 | 43.57956 | 16.87977 | 37068 ft | 467 kts | 147° |
| 2026-05-05 20:26 | 43.52697 | 16.93220 | 37067 ft | 466 kts | 147° |
| 2026-05-05 20:27 | 43.47464 | 16.98425 | 37067 ft | 466 kts | 147° |
| 2026-05-05 20:27 | 43.42207 | 17.03642 | 37061 ft | 466 kts | 147° |
| 2026-05-05 20:28 | 43.36965 | 17.08834 | 37057 ft | 467 kts | 147° |
| 2026-05-05 20:28 | 43.31717 | 17.14019 | 37056 ft | 467 kts | 147° |
| 2026-05-05 20:29 | 43.26440 | 17.19222 | 37055 ft | 468 kts | 147° |
| 2026-05-05 20:29 | 43.21156 | 17.24419 | 37056 ft | 468 kts | 147° |
| 2026-05-05 20:30 | 43.15857 | 17.29621 | 37061 ft | 468 kts | 147° |
| 2026-05-05 20:30 | 43.10571 | 17.34799 | 37061 ft | 469 kts | 147° |
| 2026-05-05 20:31 | 43.05315 | 17.39935 | 37061 ft | 469 kts | 147° |
| 2026-05-05 20:31 | 42.99987 | 17.45131 | 37057 ft | 469 kts | 147° |
| 2026-05-05 20:32 | 42.94797 | 17.50466 | 37060 ft | 471 kts | 142° |
| 2026-05-05 20:32 | 42.90085 | 17.56662 | 37060 ft | 474 kts | 134° |
| 2026-05-05 20:33 | 42.85995 | 17.63743 | 37066 ft | 477 kts | 125° |
| 2026-05-05 20:33 | 42.82404 | 17.71312 | 37069 ft | 476 kts | 124° |
| 2026-05-05 20:34 | 42.78825 | 17.78917 | 37073 ft | 476 kts | 124° |
| 2026-05-05 20:34 | 42.75255 | 17.86430 | 36932 ft | 472 kts | 124° |
| 2026-05-05 20:34 | 42.73477 | 17.90157 | 36131 ft | 476 kts | 124° |
| 2026-05-05 20:35 | 42.71659 | 17.93954 | 34867 ft | 487 kts | 124° |
| 2026-05-05 20:35 | 42.69805 | 17.97822 | 33774 ft | 493 kts | 124° |
| 2026-05-05 20:35 | 42.67942 | 18.01708 | 32886 ft | 496 kts | 124° |
| 2026-05-05 20:35 | 42.66075 | 18.05597 | 32046 ft | 497 kts | 124° |
| 2026-05-05 20:36 | 42.64178 | 18.09540 | 31179 ft | 498 kts | 124° |
| 2026-05-05 20:36 | 42.62313 | 18.13413 | 30526 ft | 495 kts | 124° |
| 2026-05-05 20:36 | 42.60437 | 18.17308 | 29991 ft | 489 kts | 124° |
| 2026-05-05 20:36 | 42.58583 | 18.21150 | 29436 ft | 484 kts | 124° |
| 2026-05-05 20:37 | 42.56764 | 18.24913 | 28878 ft | 480 kts | 124° |
| 2026-05-05 20:37 | 42.54945 | 18.28657 | 28215 ft | 478 kts | 125° |
| 2026-05-05 20:37 | 42.53077 | 18.32330 | 27685 ft | 472 kts | 126° |
| 2026-05-05 20:37 | 42.51185 | 18.35966 | 27184 ft | 466 kts | 126° |
| 2026-05-05 20:38 | 42.49336 | 18.39503 | 26725 ft | 460 kts | 126° |
| 2026-05-05 20:38 | 42.47522 | 18.42979 | 26268 ft | 453 kts | 126° |
| 2026-05-05 20:38 | 42.45715 | 18.46454 | 25813 ft | 447 kts | 126° |
| 2026-05-05 20:38 | 42.43948 | 18.49856 | 25386 ft | 441 kts | 126° |
| 2026-05-05 20:39 | 42.42159 | 18.53200 | 24961 ft | 434 kts | 129° |
| 2026-05-05 20:39 | 42.40216 | 18.56277 | 24529 ft | 426 kts | 135° |
| 2026-05-05 20:39 | 42.38137 | 18.59022 | 24100 ft | 420 kts | 139° |
| 2026-05-05 20:39 | 42.35978 | 18.61645 | 23671 ft | 414 kts | 140° |
| 2026-05-05 20:40 | 42.33860 | 18.64185 | 23262 ft | 409 kts | 140° |
| 2026-05-05 20:40 | 42.31746 | 18.66717 | 22868 ft | 403 kts | 141° |
| 2026-05-05 20:40 | 42.29662 | 18.69216 | 22446 ft | 399 kts | 140° |
| 2026-05-05 20:40 | 42.27596 | 18.71699 | 21984 ft | 396 kts | 140° |
| 2026-05-05 20:41 | 42.25539 | 18.74170 | 21510 ft | 394 kts | 140° |
| 2026-05-05 20:41 | 42.23491 | 18.76633 | 21020 ft | 393 kts | 140° |
| 2026-05-05 20:41 | 42.21460 | 18.79074 | 20548 ft | 391 kts | 140° |
| 2026-05-05 20:41 | 42.19441 | 18.81499 | 20073 ft | 390 kts | 140° |
| 2026-05-05 20:42 | 42.17431 | 18.83911 | 19595 ft | 388 kts | 140° |
| 2026-05-05 20:42 | 42.15428 | 18.86313 | 19144 ft | 387 kts | 139° |
| 2026-05-05 20:42 | 42.13433 | 18.88704 | 18664 ft | 385 kts | 139° |
| 2026-05-05 20:42 | 42.11416 | 18.91120 | 18186 ft | 384 kts | 139° |
| 2026-05-05 20:43 | 42.09435 | 18.93490 | 17735 ft | 383 kts | 139° |
| 2026-05-05 20:43 | 42.07461 | 18.95851 | 17258 ft | 383 kts | 139° |
| 2026-05-05 20:43 | 42.05460 | 18.98243 | 16770 ft | 382 kts | 139° |
| 2026-05-05 20:43 | 42.03484 | 19.00603 | 16305 ft | 380 kts | 139° |
| 2026-05-05 20:44 | 42.01510 | 19.02959 | 15861 ft | 378 kts | 139° |
| 2026-05-05 20:44 | 41.99566 | 19.05274 | 15397 ft | 377 kts | 139° |
| 2026-05-05 20:44 | 41.97600 | 19.07615 | 14916 ft | 376 kts | 139° |
| 2026-05-05 20:44 | 41.95631 | 19.09958 | 14437 ft | 374 kts | 139° |
| 2026-05-05 20:45 | 41.91785 | 19.14528 | 13577 ft | 369 kts | 140° |
| 2026-05-05 20:45 | 41.89873 | 19.16795 | 13150 ft | 366 kts | 140° |
| 2026-05-05 20:45 | 41.87972 | 19.19048 | 12747 ft | 361 kts | 140° |
| 2026-05-05 20:46 | 41.86101 | 19.21265 | 12370 ft | 356 kts | 140° |
| 2026-05-05 20:46 | 41.84282 | 19.23417 | 12116 ft | 347 kts | 140° |
| 2026-05-05 20:46 | 41.82505 | 19.25519 | 12093 ft | 331 kts | 140° |
| 2026-05-05 20:46 | 41.80811 | 19.27521 | 12087 ft | 316 kts | 140° |
| 2026-05-05 20:47 | 41.79197 | 19.29427 | 12082 ft | 300 kts | 140° |
| 2026-05-05 20:47 | 41.77699 | 19.31264 | 12081 ft | 286 kts | 136° |
| 2026-05-05 20:47 | 41.76387 | 19.33190 | 11864 ft | 284 kts | 132° |
| 2026-05-05 20:47 | 41.75120 | 19.35202 | 11572 ft | 281 kts | 131° |
| 2026-05-05 20:48 | 41.73870 | 19.37213 | 11282 ft | 278 kts | 131° |
| 2026-05-05 20:48 | 41.72650 | 19.39173 | 10988 ft | 275 kts | 131° |
| 2026-05-05 20:48 | 41.71426 | 19.41134 | 10682 ft | 273 kts | 131° |
| 2026-05-05 20:48 | 41.70211 | 19.43074 | 10373 ft | 270 kts | 131° |
| 2026-05-05 20:49 | 41.69012 | 19.44987 | 10006 ft | 266 kts | 131° |
| 2026-05-05 20:49 | 41.67845 | 19.46844 | 9662 ft | 261 kts | 131° |
| 2026-05-05 20:49 | 41.66691 | 19.48683 | 9309 ft | 257 kts | 131° |
| 2026-05-05 20:49 | 41.65543 | 19.50509 | 8955 ft | 252 kts | 131° |
| 2026-05-05 20:50 | 41.64429 | 19.52290 | 8612 ft | 248 kts | 128° |
| 2026-05-05 20:50 | 41.63718 | 19.54336 | 8216 ft | 249 kts | 96° |
| 2026-05-05 20:50 | 41.63855 | 19.56628 | 7878 ft | 246 kts | 82° |
| 2026-05-05 20:50 | 41.64085 | 19.58876 | 7560 ft | 242 kts | 84° |
| 2026-05-05 20:51 | 41.64270 | 19.61066 | 7252 ft | 238 kts | 85° |
| 2026-05-05 20:51 | 41.64439 | 19.63236 | 6948 ft | 234 kts | 85° |
| 2026-05-05 20:51 | 41.64603 | 19.65394 | 6646 ft | 230 kts | 86° |
| 2026-05-05 20:51 | 41.64565 | 19.67476 | 6302 ft | 225 kts | 112° |
| 2026-05-05 20:52 | 41.63652 | 19.69070 | 5909 ft | 218 kts | 154° |
| 2026-05-05 20:52 | 41.62217 | 19.69532 | 5529 ft | 211 kts | 180° |
| 2026-05-05 20:52 | 41.60758 | 19.69605 | 5147 ft | 208 kts | 179° |
| 2026-05-05 20:52 | 41.59366 | 19.69728 | 4806 ft | 199 kts | 177° |
| 2026-05-05 20:53 | 41.58009 | 19.69878 | 4281 ft | 193 kts | 176° |
| 2026-05-05 20:53 | 41.56670 | 19.70042 | 3675 ft | 194 kts | 176° |
| 2026-05-05 20:53 | 41.55354 | 19.70213 | 3130 ft | 194 kts | 176° |
| 2026-05-05 20:53 | 41.53999 | 19.70408 | 2568 ft | 197 kts | 175° |
| 2026-05-05 20:54 | 41.52633 | 19.70606 | 2100 ft | 195 kts | 175° |
| 2026-05-05 20:54 | 41.51315 | 19.70783 | 1805 ft | 185 kts | 175° |
| 2026-05-05 20:54 | 41.50092 | 19.70940 | 1562 ft | 171 kts | 176° |
| 2026-05-05 20:54 | 41.48944 | 19.71088 | 1331 ft | 157 kts | 176° |
| 2026-05-05 20:55 | 41.47910 | 19.71222 | 1122 ft | 144 kts | 175° |
| 2026-05-05 20:55 | 41.46922 | 19.71349 | 951 ft | 143 kts | 175° |
| 2026-05-05 20:55 | 41.45932 | 19.71477 | 773 ft | 143 kts | 175° |
| 2026-05-05 20:55 | 41.44935 | 19.71606 | 587 ft | 143 kts | 175° |
| 2026-05-05 20:56 | 41.43947 | 19.71731 | 398 ft | 142 kts | 175° |
| 2026-05-05 20:56 | 41.42966 | 19.71859 | 212 ft | 142 kts | 173° |
| 2026-05-05 20:56 | 41.42003 | 19.71986 | 121 ft | 130 kts | 175° |
| 2026-05-05 20:56 | 41.41357 | 19.72072 | 126 ft | 50 kts | 175° |
| 2026-05-05 20:57 | 41.41034 | 19.72114 | 129 ft | 44 kts | 174° |
| 2026-05-05 20:57 | 41.40803 | 19.72143 | 130 ft | 26 kts | 174° |
| 2026-05-05 20:57 | 41.40704 | 19.72152 | 130 ft | 6 kts | 197° |
| 2026-05-05 20:57 | 41.40679 | 19.72094 | 130 ft | 8 kts | 258° |
| 2026-05-05 20:58 | 41.40667 | 19.72010 | 130 ft | 9 kts | 257° |
| 2026-05-05 20:58 | 41.40647 | 19.71908 | 128 ft | 12 kts | 255° |
| 2026-05-05 20:58 | 41.40634 | 19.71812 | 127 ft | 9 kts | 281° |
| 2026-05-05 20:58 | 41.40701 | 19.71768 | 126 ft | 16 kts | 355° |
| 2026-05-05 20:59 | 41.40834 | 19.71744 | 126 ft | 19 kts | 350° |
| 2026-05-05 20:59 | 41.40967 | 19.71714 | 126 ft | 19 kts | 351° |
| 2026-05-05 20:59 | 41.41102 | 19.71695 | 126 ft | 19 kts | 354° |
| 2026-05-05 20:59 | 41.41238 | 19.71677 | 125 ft | 20 kts | 354° |
| 2026-05-05 21:00 | 41.41381 | 19.71658 | 123 ft | 21 kts | 354° |
| 2026-05-05 21:00 | 41.41526 | 19.71638 | 122 ft | 21 kts | 354° |
| 2026-05-05 21:00 | 41.41677 | 19.71619 | 120 ft | 22 kts | 355° |
| 2026-05-05 21:00 | 41.41803 | 19.71602 | 120 ft | 16 kts | 354° |
| 2026-05-05 21:01 | 41.41910 | 19.71590 | 118 ft | 14 kts | 355° |
| 2026-05-05 21:01 | 41.41983 | 19.71580 | 117 ft | 5 kts | 341° |
| 2026-05-05 21:01 | 41.41991 | 19.71549 | 117 ft | 3 kts | 266° |
| 2026-05-05 21:01 | 41.41989 | 19.71519 | 117 ft | 0 kts | 265° |
| 2026-05-05 21:02 | 41.41989 | 19.71513 | 117 ft | 0 kts | 265° |